sensor_id;sensor_type;location;lat;lon;timestamp;temperature;humidity
22623;DHT22;11478;51.094;7.030;2022-12-07T00:01:24;4.20;99.90
22623;DHT22;11478;51.094;7.030;2022-12-07T00:03:52;4.20;99.90
22623;DHT22;11478;51.094;7.030;2022-12-07T00:09:40;4.20;99.90
22623;DHT22;11478;51.094;7.030;2022-12-07T00:12:07;4.20;99.90
22623;DHT22;11478;51.094;7.030;2022-12-07T00:14:33;4.20;99.90
22623;DHT22;11478;51.094;7.030;2022-12-07T00:16:59;4.30;99.90
22623;DHT22;11478;51.094;7.030;2022-12-07T00:19:25;4.30;99.90
22623;DHT22;11478;51.094;7.030;2022-12-07T00:21:51;4.30;99.90
22623;DHT22;11478;51.094;7.030;2022-12-07T00:24:17;4.30;99.90
22623;DHT22;11478;51.094;7.030;2022-12-07T00:26:43;4.20;99.90
22623;DHT22;11478;51.094;7.030;2022-12-07T00:29:30;4.20;99.90
22623;DHT22;11478;51.094;7.030;2022-12-07T00:31:55;4.20;99.90
22623;DHT22;11478;51.094;7.030;2022-12-07T00:34:21;4.30;99.90
22623;DHT22;11478;51.094;7.030;2022-12-07T00:36:48;4.30;99.90
22623;DHT22;11478;51.094;7.030;2022-12-07T00:39:20;4.30;99.90
22623;DHT22;11478;51.094;7.030;2022-12-07T00:41:45;4.30;99.90
22623;DHT22;11478;51.094;7.030;2022-12-07T00:44:14;4.30;99.90
22623;DHT22;11478;51.094;7.030;2022-12-07T00:46:39;4.30;99.90
22623;DHT22;11478;51.094;7.030;2022-12-07T00:49:10;4.30;99.90
22623;DHT22;11478;51.094;7.030;2022-12-07T00:51:36;4.30;99.90
22623;DHT22;11478;51.094;7.030;2022-12-07T00:54:05;4.30;99.90
22623;DHT22;11478;51.094;7.030;2022-12-07T00:56:31;4.30;99.90
22623;DHT22;11478;51.094;7.030;2022-12-07T00:59:00;4.30;99.90
22623;DHT22;11478;51.094;7.030;2022-12-07T01:01:28;4.30;99.90
22623;DHT22;11478;51.094;7.030;2022-12-07T01:03:55;4.30;99.90
22623;DHT22;11478;51.094;7.030;2022-12-07T01:06:21;4.30;99.90
22623;DHT22;11478;51.094;7.030;2022-12-07T01:08:48;4.30;99.90
22623;DHT22;11478;51.094;7.030;2022-12-07T01:11:17;4.30;99.90
22623;DHT22;11478;51.094;7.030;2022-12-07T01:14:00;4.30;99.90
22623;DHT22;11478;51.094;7.030;2022-12-07T01:16:28;4.30;99.90
22623;DHT22;11478;51.094;7.030;2022-12-07T01:18:59;4.30;99.90
22623;DHT22;11478;51.094;7.030;2022-12-07T01:21:27;4.30;99.90
22623;DHT22;11478;51.094;7.030;2022-12-07T01:23:57;4.30;99.90
22623;DHT22;11478;51.094;7.030;2022-12-07T01:26:25;4.30;99.90
22623;DHT22;11478;51.094;7.030;2022-12-07T01:28:52;4.30;99.90
22623;DHT22;11478;51.094;7.030;2022-12-07T01:31:25;4.30;99.90
22623;DHT22;11478;51.094;7.030;2022-12-07T01:33:54;4.30;99.90
22623;DHT22;11478;51.094;7.030;2022-12-07T01:36:31;4.30;99.90
22623;DHT22;11478;51.094;7.030;2022-12-07T01:39:05;4.30;99.90
22623;DHT22;11478;51.094;7.030;2022-12-07T01:41:34;4.30;99.90
22623;DHT22;11478;51.094;7.030;2022-12-07T01:44:23;4.30;99.90
22623;DHT22;11478;51.094;7.030;2022-12-07T01:46:57;4.30;99.90
22623;DHT22;11478;51.094;7.030;2022-12-07T01:55:00;4.30;99.90
22623;DHT22;11478;51.094;7.030;2022-12-07T01:57:28;4.30;99.90
22623;DHT22;11478;51.094;7.030;2022-12-07T02:00:06;4.30;99.90
22623;DHT22;11478;51.094;7.030;2022-12-07T02:02:39;4.30;99.90
22623;DHT22;11478;51.094;7.030;2022-12-07T02:05:08;4.30;99.90
22623;DHT22;11478;51.094;7.030;2022-12-07T02:07:36;4.30;99.90
22623;DHT22;11478;51.094;7.030;2022-12-07T02:10:21;4.20;99.90
22623;DHT22;11478;51.094;7.030;2022-12-07T02:15:52;4.20;99.90
22623;DHT22;11478;51.094;7.030;2022-12-07T02:30:06;4.20;99.90
22623;DHT22;11478;51.094;7.030;2022-12-07T02:38:25;4.30;99.90
22623;DHT22;11478;51.094;7.030;2022-12-07T02:41:06;4.20;99.90
22623;DHT22;11478;51.094;7.030;2022-12-07T02:43:41;4.20;99.90
22623;DHT22;11478;51.094;7.030;2022-12-07T02:46:12;4.30;99.90
22623;DHT22;11478;51.094;7.030;2022-12-07T02:48:43;4.20;99.90
22623;DHT22;11478;51.094;7.030;2022-12-07T02:51:09;4.30;99.90
22623;DHT22;11478;51.094;7.030;2022-12-07T02:53:37;4.30;99.90
22623;DHT22;11478;51.094;7.030;2022-12-07T03:10:20;4.30;99.90
22623;DHT22;11478;51.094;7.030;2022-12-07T03:13:09;4.30;99.90
22623;DHT22;11478;51.094;7.030;2022-12-07T03:15:46;4.30;99.90
22623;DHT22;11478;51.094;7.030;2022-12-07T03:18:22;4.30;99.90
22623;DHT22;11478;51.094;7.030;2022-12-07T03:21:13;4.30;99.90
22623;DHT22;11478;51.094;7.030;2022-12-07T03:23:41;4.30;99.90
22623;DHT22;11478;51.094;7.030;2022-12-07T03:26:15;4.30;99.90
22623;DHT22;11478;51.094;7.030;2022-12-07T03:28:45;4.30;99.90
22623;DHT22;11478;51.094;7.030;2022-12-07T03:31:24;4.30;99.90
22623;DHT22;11478;51.094;7.030;2022-12-07T03:33:59;4.30;99.90
22623;DHT22;11478;51.094;7.030;2022-12-07T03:36:44;4.30;99.90
22623;DHT22;11478;51.094;7.030;2022-12-07T03:40:04;4.30;99.90
22623;DHT22;11478;51.094;7.030;2022-12-07T03:42:33;4.30;99.90
22623;DHT22;11478;51.094;7.030;2022-12-07T03:45:00;4.30;99.90
22623;DHT22;11478;51.094;7.030;2022-12-07T03:47:33;4.30;99.90
22623;DHT22;11478;51.094;7.030;2022-12-07T03:50:15;4.30;99.90
22623;DHT22;11478;51.094;7.030;2022-12-07T03:52:51;4.30;99.90
22623;DHT22;11478;51.094;7.030;2022-12-07T03:55:32;4.30;99.90
22623;DHT22;11478;51.094;7.030;2022-12-07T03:58:04;4.30;99.90
22623;DHT22;11478;51.094;7.030;2022-12-07T04:00:31;4.30;99.90
22623;DHT22;11478;51.094;7.030;2022-12-07T04:02:58;4.30;99.90
22623;DHT22;11478;51.094;7.030;2022-12-07T04:05:24;4.30;99.90
22623;DHT22;11478;51.094;7.030;2022-12-07T04:07:50;4.30;99.90
22623;DHT22;11478;51.094;7.030;2022-12-07T04:13:36;4.30;99.90
22623;DHT22;11478;51.094;7.030;2022-12-07T04:19:43;4.30;99.90
22623;DHT22;11478;51.094;7.030;2022-12-07T04:22:09;4.30;99.90
22623;DHT22;11478;51.094;7.030;2022-12-07T04:24:37;4.30;99.90
22623;DHT22;11478;51.094;7.030;2022-12-07T04:27:04;4.20;99.90
22623;DHT22;11478;51.094;7.030;2022-12-07T04:29:37;4.30;99.90
22623;DHT22;11478;51.094;7.030;2022-12-07T04:32:02;4.30;99.90
22623;DHT22;11478;51.094;7.030;2022-12-07T04:34:28;4.20;99.90
22623;DHT22;11478;51.094;7.030;2022-12-07T04:36:54;4.20;99.90
22623;DHT22;11478;51.094;7.030;2022-12-07T04:39:23;4.20;99.90
22623;DHT22;11478;51.094;7.030;2022-12-07T04:41:50;4.20;99.90
22623;DHT22;11478;51.094;7.030;2022-12-07T04:44:16;4.30;99.90
22623;DHT22;11478;51.094;7.030;2022-12-07T04:46:51;4.30;99.90
22623;DHT22;11478;51.094;7.030;2022-12-07T04:49:18;4.30;99.90
22623;DHT22;11478;51.094;7.030;2022-12-07T04:51:44;4.20;99.90
22623;DHT22;11478;51.094;7.030;2022-12-07T04:54:11;4.20;99.90
22623;DHT22;11478;51.094;7.030;2022-12-07T04:56:38;4.20;99.90
22623;DHT22;11478;51.094;7.030;2022-12-07T04:59:04;4.30;99.90
22623;DHT22;11478;51.094;7.030;2022-12-07T05:01:33;4.30;99.90
22623;DHT22;11478;51.094;7.030;2022-12-07T05:03:59;4.30;99.90
22623;DHT22;11478;51.094;7.030;2022-12-07T05:06:26;4.20;99.90
22623;DHT22;11478;51.094;7.030;2022-12-07T05:08:52;4.20;99.90
22623;DHT22;11478;51.094;7.030;2022-12-07T05:11:18;4.20;99.90
22623;DHT22;11478;51.094;7.030;2022-12-07T05:14:02;4.20;99.90
22623;DHT22;11478;51.094;7.030;2022-12-07T05:16:29;4.20;99.90
22623;DHT22;11478;51.094;7.030;2022-12-07T05:18:55;4.20;99.90
22623;DHT22;11478;51.094;7.030;2022-12-07T05:21:22;4.20;99.90
22623;DHT22;11478;51.094;7.030;2022-12-07T05:23:48;4.20;99.90
22623;DHT22;11478;51.094;7.030;2022-12-07T05:26:14;4.20;99.90
22623;DHT22;11478;51.094;7.030;2022-12-07T05:28:40;4.10;99.90
22623;DHT22;11478;51.094;7.030;2022-12-07T05:31:06;4.10;99.90
22623;DHT22;11478;51.094;7.030;2022-12-07T05:33:32;4.10;99.90
22623;DHT22;11478;51.094;7.030;2022-12-07T05:35:58;4.10;99.90
22623;DHT22;11478;51.094;7.030;2022-12-07T05:38:24;4.10;99.90
22623;DHT22;11478;51.094;7.030;2022-12-07T05:40:50;4.10;99.90
22623;DHT22;11478;51.094;7.030;2022-12-07T05:43:16;4.10;99.90
22623;DHT22;11478;51.094;7.030;2022-12-07T05:45:42;4.00;99.90
22623;DHT22;11478;51.094;7.030;2022-12-07T05:48:14;4.00;99.90
22623;DHT22;11478;51.094;7.030;2022-12-07T05:50:40;4.00;99.90
22623;DHT22;11478;51.094;7.030;2022-12-07T05:53:09;4.00;99.90
22623;DHT22;11478;51.094;7.030;2022-12-07T05:55:35;4.00;99.90
22623;DHT22;11478;51.094;7.030;2022-12-07T05:58:02;4.10;99.90
22623;DHT22;11478;51.094;7.030;2022-12-07T06:00:46;4.00;99.90
22623;DHT22;11478;51.094;7.030;2022-12-07T06:03:13;4.00;99.90
22623;DHT22;11478;51.094;7.030;2022-12-07T06:05:39;4.00;99.90
22623;DHT22;11478;51.094;7.030;2022-12-07T06:08:10;4.00;99.90
22623;DHT22;11478;51.094;7.030;2022-12-07T06:10:36;4.00;99.90
22623;DHT22;11478;51.094;7.030;2022-12-07T06:13:04;4.00;99.90
22623;DHT22;11478;51.094;7.030;2022-12-07T06:15:29;4.00;99.90
22623;DHT22;11478;51.094;7.030;2022-12-07T06:18:14;3.90;99.90
22623;DHT22;11478;51.094;7.030;2022-12-07T06:20:40;3.90;99.90
22623;DHT22;11478;51.094;7.030;2022-12-07T06:23:12;3.90;99.90
22623;DHT22;11478;51.094;7.030;2022-12-07T06:25:38;3.90;99.90
22623;DHT22;11478;51.094;7.030;2022-12-07T06:28:25;3.90;99.90
22623;DHT22;11478;51.094;7.030;2022-12-07T06:31:04;3.90;99.90
22623;DHT22;11478;51.094;7.030;2022-12-07T06:33:30;3.90;99.90
22623;DHT22;11478;51.094;7.030;2022-12-07T06:35:55;3.90;99.90
22623;DHT22;11478;51.094;7.030;2022-12-07T06:38:21;3.90;99.90
22623;DHT22;11478;51.094;7.030;2022-12-07T06:40:50;3.90;99.90
22623;DHT22;11478;51.094;7.030;2022-12-07T06:43:16;3.90;99.90
22623;DHT22;11478;51.094;7.030;2022-12-07T06:45:43;3.80;99.90
22623;DHT22;11478;51.094;7.030;2022-12-07T06:48:08;3.80;99.90
22623;DHT22;11478;51.094;7.030;2022-12-07T06:50:51;3.80;99.90
22623;DHT22;11478;51.094;7.030;2022-12-07T06:53:17;3.80;99.90
22623;DHT22;11478;51.094;7.030;2022-12-07T06:55:44;3.70;99.90
22623;DHT22;11478;51.094;7.030;2022-12-07T06:58:09;3.80;99.90
22623;DHT22;11478;51.094;7.030;2022-12-07T07:00:39;3.70;99.90
22623;DHT22;11478;51.094;7.030;2022-12-07T07:03:06;3.70;99.90
22623;DHT22;11478;51.094;7.030;2022-12-07T07:05:33;3.60;99.90
22623;DHT22;11478;51.094;7.030;2022-12-07T07:07:58;3.60;99.90
22623;DHT22;11478;51.094;7.030;2022-12-07T07:10:26;3.60;99.90
22623;DHT22;11478;51.094;7.030;2022-12-07T07:12:52;3.60;99.90
22623;DHT22;11478;51.094;7.030;2022-12-07T07:15:20;3.70;99.90
22623;DHT22;11478;51.094;7.030;2022-12-07T07:17:46;3.60;99.90
22623;DHT22;11478;51.094;7.030;2022-12-07T07:20:13;3.60;99.90
22623;DHT22;11478;51.094;7.030;2022-12-07T07:22:39;3.60;99.90
22623;DHT22;11478;51.094;7.030;2022-12-07T07:25:06;3.60;99.90
22623;DHT22;11478;51.094;7.030;2022-12-07T07:27:32;3.60;99.90
22623;DHT22;11478;51.094;7.030;2022-12-07T07:29:57;3.60;99.90
22623;DHT22;11478;51.094;7.030;2022-12-07T07:32:24;3.60;99.90
22623;DHT22;11478;51.094;7.030;2022-12-07T07:34:50;3.60;99.90
22623;DHT22;11478;51.094;7.030;2022-12-07T07:37:24;3.60;99.90
22623;DHT22;11478;51.094;7.030;2022-12-07T07:39:51;3.50;99.90
22623;DHT22;11478;51.094;7.030;2022-12-07T07:42:25;3.50;99.90
22623;DHT22;11478;51.094;7.030;2022-12-07T07:44:51;3.50;99.90
22623;DHT22;11478;51.094;7.030;2022-12-07T07:47:23;3.50;99.90
22623;DHT22;11478;51.094;7.030;2022-12-07T07:49:50;3.50;99.90
22623;DHT22;11478;51.094;7.030;2022-12-07T07:52:38;3.50;99.90
22623;DHT22;11478;51.094;7.030;2022-12-07T07:55:05;3.60;99.90
22623;DHT22;11478;51.094;7.030;2022-12-07T07:57:32;3.60;99.90
22623;DHT22;11478;51.094;7.030;2022-12-07T07:59:58;3.60;99.90
22623;DHT22;11478;51.094;7.030;2022-12-07T08:02:41;3.70;99.90
22623;DHT22;11478;51.094;7.030;2022-12-07T08:05:08;3.70;99.90
22623;DHT22;11478;51.094;7.030;2022-12-07T08:07:52;3.70;99.90
22623;DHT22;11478;51.094;7.030;2022-12-07T08:10:18;3.70;99.90
22623;DHT22;11478;51.094;7.030;2022-12-07T08:12:44;3.70;99.90
22623;DHT22;11478;51.094;7.030;2022-12-07T08:15:30;3.70;99.90
22623;DHT22;11478;51.094;7.030;2022-12-07T08:18:00;3.70;99.90
22623;DHT22;11478;51.094;7.030;2022-12-07T08:20:26;3.80;99.90
22623;DHT22;11478;51.094;7.030;2022-12-07T08:22:56;3.80;99.90
22623;DHT22;11478;51.094;7.030;2022-12-07T08:25:22;3.80;99.90
22623;DHT22;11478;51.094;7.030;2022-12-07T08:27:51;3.80;99.90
22623;DHT22;11478;51.094;7.030;2022-12-07T08:30:18;3.80;99.90
22623;DHT22;11478;51.094;7.030;2022-12-07T08:32:47;3.80;99.90
22623;DHT22;11478;51.094;7.030;2022-12-07T08:35:25;3.90;99.90
22623;DHT22;11478;51.094;7.030;2022-12-07T08:37:51;3.90;99.90
22623;DHT22;11478;51.094;7.030;2022-12-07T08:40:18;3.90;99.90
22623;DHT22;11478;51.094;7.030;2022-12-07T08:42:48;3.90;99.90
22623;DHT22;11478;51.094;7.030;2022-12-07T08:48:20;4.00;99.90
22623;DHT22;11478;51.094;7.030;2022-12-07T08:50:50;4.00;99.90
22623;DHT22;11478;51.094;7.030;2022-12-07T08:53:16;4.00;99.90
22623;DHT22;11478;51.094;7.030;2022-12-07T08:55:45;4.00;99.90
22623;DHT22;11478;51.094;7.030;2022-12-07T08:58:14;4.00;99.90
22623;DHT22;11478;51.094;7.030;2022-12-07T09:00:49;4.10;99.90
22623;DHT22;11478;51.094;7.030;2022-12-07T09:03:15;4.10;99.90
22623;DHT22;11478;51.094;7.030;2022-12-07T09:05:41;4.20;99.90
22623;DHT22;11478;51.094;7.030;2022-12-07T09:08:08;4.20;99.90
22623;DHT22;11478;51.094;7.030;2022-12-07T09:10:34;4.20;99.90
22623;DHT22;11478;51.094;7.030;2022-12-07T09:13:00;4.20;99.90
22623;DHT22;11478;51.094;7.030;2022-12-07T09:15:38;4.20;99.90
22623;DHT22;11478;51.094;7.030;2022-12-07T09:18:04;4.20;99.90
22623;DHT22;11478;51.094;7.030;2022-12-07T09:20:32;4.20;99.90
22623;DHT22;11478;51.094;7.030;2022-12-07T09:22:57;4.20;99.90
22623;DHT22;11478;51.094;7.030;2022-12-07T09:25:23;4.20;99.90
22623;DHT22;11478;51.094;7.030;2022-12-07T09:27:56;4.20;99.90
22623;DHT22;11478;51.094;7.030;2022-12-07T09:30:28;4.30;99.90
22623;DHT22;11478;51.094;7.030;2022-12-07T09:32:55;4.30;99.90
22623;DHT22;11478;51.094;7.030;2022-12-07T09:35:33;4.30;99.90
22623;DHT22;11478;51.094;7.030;2022-12-07T09:37:58;4.40;99.90
22623;DHT22;11478;51.094;7.030;2022-12-07T09:40:28;4.40;99.90
22623;DHT22;11478;51.094;7.030;2022-12-07T09:42:55;4.40;99.90
22623;DHT22;11478;51.094;7.030;2022-12-07T09:47:56;4.30;99.90
22623;DHT22;11478;51.094;7.030;2022-12-07T09:50:34;4.40;99.90
22623;DHT22;11478;51.094;7.030;2022-12-07T09:53:10;4.40;99.90
22623;DHT22;11478;51.094;7.030;2022-12-07T09:55:42;4.40;99.90
22623;DHT22;11478;51.094;7.030;2022-12-07T09:58:21;4.40;99.90
22623;DHT22;11478;51.094;7.030;2022-12-07T10:00:49;4.50;99.90
22623;DHT22;11478;51.094;7.030;2022-12-07T10:03:16;4.50;99.90
22623;DHT22;11478;51.094;7.030;2022-12-07T10:05:47;4.60;99.90
22623;DHT22;11478;51.094;7.030;2022-12-07T10:08:15;4.60;99.90
22623;DHT22;11478;51.094;7.030;2022-12-07T10:10:45;4.60;99.90
22623;DHT22;11478;51.094;7.030;2022-12-07T10:13:21;4.70;99.90
22623;DHT22;11478;51.094;7.030;2022-12-07T10:19:31;4.70;99.90
22623;DHT22;11478;51.094;7.030;2022-12-07T10:22:12;4.70;99.90
22623;DHT22;11478;51.094;7.030;2022-12-07T10:24:40;4.70;99.90
22623;DHT22;11478;51.094;7.030;2022-12-07T10:27:26;4.80;99.90
22623;DHT22;11478;51.094;7.030;2022-12-07T10:29:54;4.80;99.90
22623;DHT22;11478;51.094;7.030;2022-12-07T10:32:34;4.80;99.90
22623;DHT22;11478;51.094;7.030;2022-12-07T10:35:24;4.90;99.90
22623;DHT22;11478;51.094;7.030;2022-12-07T10:38:16;4.90;99.90
22623;DHT22;11478;51.094;7.030;2022-12-07T10:40:42;4.90;99.90
22623;DHT22;11478;51.094;7.030;2022-12-07T10:43:19;4.90;99.90
22623;DHT22;11478;51.094;7.030;2022-12-07T11:04:24;5.20;99.90
22623;DHT22;11478;51.094;7.030;2022-12-07T11:38:14;5.20;99.90
22623;DHT22;11478;51.094;7.030;2022-12-07T11:40:45;5.30;99.90
22623;DHT22;11478;51.094;7.030;2022-12-07T11:46:03;5.30;99.90
22623;DHT22;11478;51.094;7.030;2022-12-07T11:48:40;5.30;99.90
22623;DHT22;11478;51.094;7.030;2022-12-07T11:51:10;5.40;99.90
22623;DHT22;11478;51.094;7.030;2022-12-07T11:53:52;5.40;99.90
22623;DHT22;11478;51.094;7.030;2022-12-07T11:56:20;5.50;99.90
22623;DHT22;11478;51.094;7.030;2022-12-07T12:06:38;5.50;99.90
22623;DHT22;11478;51.094;7.030;2022-12-07T12:09:28;5.50;99.90
22623;DHT22;11478;51.094;7.030;2022-12-07T12:20:19;5.90;99.90
22623;DHT22;11478;51.094;7.030;2022-12-07T12:23:05;5.90;99.90
22623;DHT22;11478;51.094;7.030;2022-12-07T12:25:45;6.00;99.90
22623;DHT22;11478;51.094;7.030;2022-12-07T12:28:27;6.00;99.90
22623;DHT22;11478;51.094;7.030;2022-12-07T12:34:01;6.40;99.90
22623;DHT22;11478;51.094;7.030;2022-12-07T12:47:40;6.70;99.90
22623;DHT22;11478;51.094;7.030;2022-12-07T12:50:31;6.70;99.90
22623;DHT22;11478;51.094;7.030;2022-12-07T12:58:41;6.50;99.90
22623;DHT22;11478;51.094;7.030;2022-12-07T13:01:42;6.30;99.90
22623;DHT22;11478;51.094;7.030;2022-12-07T13:04:24;6.20;99.90
22623;DHT22;11478;51.094;7.030;2022-12-07T13:06:54;6.10;99.90
22623;DHT22;11478;51.094;7.030;2022-12-07T13:09:28;6.10;99.90
22623;DHT22;11478;51.094;7.030;2022-12-07T13:11:58;6.00;99.90
22623;DHT22;11478;51.094;7.030;2022-12-07T13:14:52;6.10;99.90
22623;DHT22;11478;51.094;7.030;2022-12-07T13:20:08;6.20;99.90
22623;DHT22;11478;51.094;7.030;2022-12-07T13:22:36;6.20;99.90
22623;DHT22;11478;51.094;7.030;2022-12-07T13:25:36;6.20;99.90
22623;DHT22;11478;51.094;7.030;2022-12-07T13:28:15;6.10;99.90
22623;DHT22;11478;51.094;7.030;2022-12-07T13:31:13;6.10;99.90
22623;DHT22;11478;51.094;7.030;2022-12-07T13:33:43;6.00;99.90
22623;DHT22;11478;51.094;7.030;2022-12-07T13:36:31;5.90;99.90
22623;DHT22;11478;51.094;7.030;2022-12-07T13:41:41;5.80;99.90
22623;DHT22;11478;51.094;7.030;2022-12-07T13:44:13;5.70;99.90
22623;DHT22;11478;51.094;7.030;2022-12-07T13:49:44;5.60;99.90
22623;DHT22;11478;51.094;7.030;2022-12-07T13:52:21;5.50;99.90
22623;DHT22;11478;51.094;7.030;2022-12-07T13:57:21;5.50;99.90
22623;DHT22;11478;51.094;7.030;2022-12-07T13:59:48;5.40;99.90
22623;DHT22;11478;51.094;7.030;2022-12-07T14:02:29;5.40;99.90
22623;DHT22;11478;51.094;7.030;2022-12-07T14:05:15;5.40;99.90
22623;DHT22;11478;51.094;7.030;2022-12-07T14:07:56;5.40;99.90
22623;DHT22;11478;51.094;7.030;2022-12-07T14:10:25;5.40;99.90
22623;DHT22;11478;51.094;7.030;2022-12-07T14:12:51;5.40;99.90
22623;DHT22;11478;51.094;7.030;2022-12-07T14:15:24;5.30;99.90
22623;DHT22;11478;51.094;7.030;2022-12-07T14:17:59;5.30;99.90
22623;DHT22;11478;51.094;7.030;2022-12-07T14:23:00;5.40;99.90
22623;DHT22;11478;51.094;7.030;2022-12-07T14:25:48;5.40;99.90
22623;DHT22;11478;51.094;7.030;2022-12-07T14:28:32;5.40;99.90
22623;DHT22;11478;51.094;7.030;2022-12-07T14:31:11;5.40;99.90
22623;DHT22;11478;51.094;7.030;2022-12-07T14:33:48;5.40;99.90
22623;DHT22;11478;51.094;7.030;2022-12-07T14:36:16;5.40;99.90
22623;DHT22;11478;51.094;7.030;2022-12-07T14:38:49;5.50;99.90
22623;DHT22;11478;51.094;7.030;2022-12-07T14:41:17;5.50;99.90
22623;DHT22;11478;51.094;7.030;2022-12-07T14:44:22;5.50;99.90
22623;DHT22;11478;51.094;7.030;2022-12-07T14:46:50;5.50;99.90
22623;DHT22;11478;51.094;7.030;2022-12-07T14:49:17;5.50;99.90
22623;DHT22;11478;51.094;7.030;2022-12-07T14:51:45;5.40;99.90
22623;DHT22;11478;51.094;7.030;2022-12-07T14:54:19;5.40;99.90
22623;DHT22;11478;51.094;7.030;2022-12-07T14:56:45;5.30;99.90
22623;DHT22;11478;51.094;7.030;2022-12-07T14:59:16;5.30;99.90
22623;DHT22;11478;51.094;7.030;2022-12-07T15:01:43;5.20;99.90
22623;DHT22;11478;51.094;7.030;2022-12-07T15:04:10;5.10;99.90
22623;DHT22;11478;51.094;7.030;2022-12-07T15:06:36;5.00;99.90
22623;DHT22;11478;51.094;7.030;2022-12-07T15:09:24;4.90;99.90
22623;DHT22;11478;51.094;7.030;2022-12-07T15:11:50;4.80;99.90
22623;DHT22;11478;51.094;7.030;2022-12-07T15:14:16;4.70;99.90
22623;DHT22;11478;51.094;7.030;2022-12-07T15:16:42;4.60;99.90
22623;DHT22;11478;51.094;7.030;2022-12-07T15:19:15;4.50;99.90
22623;DHT22;11478;51.094;7.030;2022-12-07T15:21:42;4.40;99.90
22623;DHT22;11478;51.094;7.030;2022-12-07T15:24:10;4.30;99.90
22623;DHT22;11478;51.094;7.030;2022-12-07T15:26:38;4.20;99.90
22623;DHT22;11478;51.094;7.030;2022-12-07T15:29:04;4.10;99.90
22623;DHT22;11478;51.094;7.030;2022-12-07T15:31:31;4.10;99.90
22623;DHT22;11478;51.094;7.030;2022-12-07T15:33:57;4.00;99.90
22623;DHT22;11478;51.094;7.030;2022-12-07T15:36:34;3.90;99.90
22623;DHT22;11478;51.094;7.030;2022-12-07T15:39:00;3.90;99.90
22623;DHT22;11478;51.094;7.030;2022-12-07T15:41:27;3.80;99.90
22623;DHT22;11478;51.094;7.030;2022-12-07T15:43:53;3.80;99.90
22623;DHT22;11478;51.094;7.030;2022-12-07T15:46:40;3.70;99.90
22623;DHT22;11478;51.094;7.030;2022-12-07T15:49:13;3.60;99.90
22623;DHT22;11478;51.094;7.030;2022-12-07T15:51:41;3.60;99.90
22623;DHT22;11478;51.094;7.030;2022-12-07T15:54:07;3.50;99.90
22623;DHT22;11478;51.094;7.030;2022-12-07T15:56:33;3.50;99.90
22623;DHT22;11478;51.094;7.030;2022-12-07T15:58:58;3.50;99.90
22623;DHT22;11478;51.094;7.030;2022-12-07T16:01:24;3.50;99.90
22623;DHT22;11478;51.094;7.030;2022-12-07T16:03:50;3.50;99.90
22623;DHT22;11478;51.094;7.030;2022-12-07T16:06:17;3.50;99.90
22623;DHT22;11478;51.094;7.030;2022-12-07T16:08:44;3.50;99.90
22623;DHT22;11478;51.094;7.030;2022-12-07T16:11:22;3.50;99.90
22623;DHT22;11478;51.094;7.030;2022-12-07T16:13:48;3.50;99.90
22623;DHT22;11478;51.094;7.030;2022-12-07T16:16:17;3.60;99.90
22623;DHT22;11478;51.094;7.030;2022-12-07T16:18:44;3.60;99.90
22623;DHT22;11478;51.094;7.030;2022-12-07T16:21:11;3.60;99.90
22623;DHT22;11478;51.094;7.030;2022-12-07T16:23:37;3.70;99.90
22623;DHT22;11478;51.094;7.030;2022-12-07T16:26:16;3.70;99.90
22623;DHT22;11478;51.094;7.030;2022-12-07T16:28:43;3.70;99.90
22623;DHT22;11478;51.094;7.030;2022-12-07T16:34:19;3.70;99.90
22623;DHT22;11478;51.094;7.030;2022-12-07T16:36:47;3.70;99.90
22623;DHT22;11478;51.094;7.030;2022-12-07T16:39:13;3.70;99.90
22623;DHT22;11478;51.094;7.030;2022-12-07T16:41:38;3.70;99.90
22623;DHT22;11478;51.094;7.030;2022-12-07T16:44:09;3.80;99.90
22623;DHT22;11478;51.094;7.030;2022-12-07T16:46:39;3.80;99.90
22623;DHT22;11478;51.094;7.030;2022-12-07T16:49:06;3.80;99.90
22623;DHT22;11478;51.094;7.030;2022-12-07T16:51:36;3.80;99.90
22623;DHT22;11478;51.094;7.030;2022-12-07T16:54:02;3.80;99.90
22623;DHT22;11478;51.094;7.030;2022-12-07T16:56:29;3.80;99.90
22623;DHT22;11478;51.094;7.030;2022-12-07T16:58:58;3.80;99.90
22623;DHT22;11478;51.094;7.030;2022-12-07T17:01:24;3.80;99.90
22623;DHT22;11478;51.094;7.030;2022-12-07T17:03:53;3.90;99.90
22623;DHT22;11478;51.094;7.030;2022-12-07T17:06:22;3.90;99.90
22623;DHT22;11478;51.094;7.030;2022-12-07T17:08:49;3.90;99.90
22623;DHT22;11478;51.094;7.030;2022-12-07T17:11:25;3.90;99.90
22623;DHT22;11478;51.094;7.030;2022-12-07T17:13:51;3.90;99.90
22623;DHT22;11478;51.094;7.030;2022-12-07T17:16:37;3.90;99.90
22623;DHT22;11478;51.094;7.030;2022-12-07T17:19:07;3.90;99.90
22623;DHT22;11478;51.094;7.030;2022-12-07T17:21:35;3.90;99.90
22623;DHT22;11478;51.094;7.030;2022-12-07T17:24:04;3.90;99.90
22623;DHT22;11478;51.094;7.030;2022-12-07T17:26:30;3.90;99.90
22623;DHT22;11478;51.094;7.030;2022-12-07T17:28:57;3.90;99.90
22623;DHT22;11478;51.094;7.030;2022-12-07T17:31:27;3.90;99.90
22623;DHT22;11478;51.094;7.030;2022-12-07T17:33:52;3.90;99.90
22623;DHT22;11478;51.094;7.030;2022-12-07T17:40:04;3.90;99.90
22623;DHT22;11478;51.094;7.030;2022-12-07T17:42:30;3.90;99.90
22623;DHT22;11478;51.094;7.030;2022-12-07T17:45:10;3.90;99.90
22623;DHT22;11478;51.094;7.030;2022-12-07T17:47:36;3.90;99.90
22623;DHT22;11478;51.094;7.030;2022-12-07T17:50:05;3.90;99.90
22623;DHT22;11478;51.094;7.030;2022-12-07T17:52:31;3.90;99.90
22623;DHT22;11478;51.094;7.030;2022-12-07T17:55:17;3.90;99.90
22623;DHT22;11478;51.094;7.030;2022-12-07T17:57:43;3.90;99.90
22623;DHT22;11478;51.094;7.030;2022-12-07T18:00:10;3.90;99.90
22623;DHT22;11478;51.094;7.030;2022-12-07T18:02:36;4.00;99.90
22623;DHT22;11478;51.094;7.030;2022-12-07T18:05:03;4.00;99.90
22623;DHT22;11478;51.094;7.030;2022-12-07T18:07:29;4.00;99.90
22623;DHT22;11478;51.094;7.030;2022-12-07T18:09:55;4.00;99.90
22623;DHT22;11478;51.094;7.030;2022-12-07T18:12:20;4.00;99.90
22623;DHT22;11478;51.094;7.030;2022-12-07T18:14:47;4.00;99.90
22623;DHT22;11478;51.094;7.030;2022-12-07T18:17:16;4.00;99.90
22623;DHT22;11478;51.094;7.030;2022-12-07T18:19:43;4.10;99.90
22623;DHT22;11478;51.094;7.030;2022-12-07T18:22:08;4.10;99.90
22623;DHT22;11478;51.094;7.030;2022-12-07T18:24:35;4.10;99.90
22623;DHT22;11478;51.094;7.030;2022-12-07T18:27:05;4.10;99.90
22623;DHT22;11478;51.094;7.030;2022-12-07T18:29:43;4.10;99.90
22623;DHT22;11478;51.094;7.030;2022-12-07T18:32:09;4.10;99.90
22623;DHT22;11478;51.094;7.030;2022-12-07T18:34:44;4.10;99.90
22623;DHT22;11478;51.094;7.030;2022-12-07T18:37:10;4.10;99.90
22623;DHT22;11478;51.094;7.030;2022-12-07T18:39:39;4.10;99.90
22623;DHT22;11478;51.094;7.030;2022-12-07T18:42:05;4.20;99.90
22623;DHT22;11478;51.094;7.030;2022-12-07T18:44:42;4.20;99.90
22623;DHT22;11478;51.094;7.030;2022-12-07T18:47:08;4.10;99.90
22623;DHT22;11478;51.094;7.030;2022-12-07T18:49:38;4.10;99.90
22623;DHT22;11478;51.094;7.030;2022-12-07T18:52:04;4.10;99.90
22623;DHT22;11478;51.094;7.030;2022-12-07T18:54:31;4.10;99.90
22623;DHT22;11478;51.094;7.030;2022-12-07T18:56:56;4.10;99.90